Terminal Aerodrome Forecast
Issued by NWS

Home | Current Version | Previous Version | Text Only | Print | Product List | Glossary On
Versions: 1 2 3 4 5 6 7 8 9 10 11 12 13 14 15 16 17 18 19 20 21 22 23 24 25 26 27
000
FTUS45 KPSR 300800 CCA
TAFPHX
TAF COR
KPHX 300859Z 3009/3106 10010KT P6SM -RA FEW008 BKN035 OVC050
      TEMPO 3009/3012 6SM -RA BR
     FM301400 07010KT 6SM -RA BR SCT015 BKN025 OVC035
      TEMPO 3014/3017 FEW008 BKN015 OVC035=

USA.gov is the U.S. government's official web portal to all federal, state and local government web resources and services.